sensor_id;sensor_type;location;lat;lon;timestamp;P1;durP1;ratioP1;P2;durP2;ratioP2
70414;SDS011;57837;52.064;113.478;2022-10-30T00:00:03;49.45;;;22.90;;
70414;SDS011;57837;52.064;113.478;2022-10-30T00:03:13;59.83;;;24.08;;
70414;SDS011;57837;52.064;113.478;2022-10-30T00:06:17;54.60;;;23.07;;
70414;SDS011;57837;52.064;113.478;2022-10-30T00:09:22;54.42;;;22.92;;
70414;SDS011;57837;52.064;113.478;2022-10-30T00:12:25;43.47;;;20.08;;
70414;SDS011;57837;52.064;113.478;2022-10-30T00:15:29;48.63;;;20.80;;
70414;SDS011;57837;52.064;113.478;2022-10-30T00:18:36;47.45;;;20.85;;
70414;SDS011;57837;52.064;113.478;2022-10-30T00:21:41;46.67;;;22.63;;
70414;SDS011;57837;52.064;113.478;2022-10-30T00:24:44;69.33;;;34.57;;
70414;SDS011;57837;52.064;113.478;2022-10-30T00:27:48;55.70;;;29.23;;
70414;SDS011;57837;52.064;113.478;2022-10-30T00:30:51;51.67;;;26.95;;
70414;SDS011;57837;52.064;113.478;2022-10-30T00:33:54;48.10;;;25.52;;
70414;SDS011;57837;52.064;113.478;2022-10-30T00:36:58;44.60;;;21.93;;
70414;SDS011;57837;52.064;113.478;2022-10-30T00:40:02;46.13;;;22.03;;
70414;SDS011;57837;52.064;113.478;2022-10-30T00:46:34;50.95;;;23.80;;
70414;SDS011;57837;52.064;113.478;2022-10-30T00:49:44;52.08;;;23.05;;
70414;SDS011;57837;52.064;113.478;2022-10-30T00:53:11;52.47;;;24.43;;
70414;SDS011;57837;52.064;113.478;2022-10-30T00:56:19;52.47;;;24.20;;
70414;SDS011;57837;52.064;113.478;2022-10-30T00:59:25;54.47;;;27.27;;
70414;SDS011;57837;52.064;113.478;2022-10-30T01:02:31;60.60;;;27.48;;
70414;SDS011;57837;52.064;113.478;2022-10-30T01:05:36;67.05;;;32.17;;
70414;SDS011;57837;52.064;113.478;2022-10-30T01:08:41;67.47;;;33.50;;
70414;SDS011;57837;52.064;113.478;2022-10-30T01:11:46;69.07;;;33.40;;
70414;SDS011;57837;52.064;113.478;2022-10-30T01:14:51;58.85;;;28.35;;
70414;SDS011;57837;52.064;113.478;2022-10-30T01:21:24;43.75;;;21.90;;
70414;SDS011;57837;52.064;113.478;2022-10-30T01:31:43;31.55;;;15.80;;
70414;SDS011;57837;52.064;113.478;2022-10-30T01:35:00;32.10;;;16.50;;
70414;SDS011;57837;52.064;113.478;2022-10-30T01:41:17;52.00;;;26.03;;
70414;SDS011;57837;52.064;113.478;2022-10-30T01:44:27;55.93;;;25.37;;
70414;SDS011;57837;52.064;113.478;2022-10-30T01:53:59;37.85;;;18.73;;
70414;SDS011;57837;52.064;113.478;2022-10-30T02:00:30;48.03;;;21.60;;
70414;SDS011;57837;52.064;113.478;2022-10-30T02:03:34;45.85;;;21.13;;
70414;SDS011;57837;52.064;113.478;2022-10-30T02:06:38;46.03;;;22.38;;
70414;SDS011;57837;52.064;113.478;2022-10-30T02:09:44;46.90;;;21.50;;
70414;SDS011;57837;52.064;113.478;2022-10-30T02:12:49;48.73;;;22.67;;
70414;SDS011;57837;52.064;113.478;2022-10-30T02:15:52;45.00;;;21.60;;
70414;SDS011;57837;52.064;113.478;2022-10-30T02:18:55;42.35;;;20.13;;
70414;SDS011;57837;52.064;113.478;2022-10-30T02:22:00;38.95;;;20.45;;
70414;SDS011;57837;52.064;113.478;2022-10-30T02:25:04;51.70;;;21.33;;
70414;SDS011;57837;52.064;113.478;2022-10-30T02:28:08;46.77;;;22.83;;
70414;SDS011;57837;52.064;113.478;2022-10-30T02:31:12;48.07;;;21.77;;
70414;SDS011;57837;52.064;113.478;2022-10-30T02:34:16;44.60;;;23.85;;
70414;SDS011;57837;52.064;113.478;2022-10-30T02:37:20;50.88;;;24.77;;
70414;SDS011;57837;52.064;113.478;2022-10-30T02:40:23;52.40;;;26.73;;
70414;SDS011;57837;52.064;113.478;2022-10-30T02:43:26;55.90;;;28.63;;
70414;SDS011;57837;52.064;113.478;2022-10-30T02:46:29;57.90;;;29.50;;
70414;SDS011;57837;52.064;113.478;2022-10-30T02:49:32;60.05;;;33.30;;
70414;SDS011;57837;52.064;113.478;2022-10-30T02:52:36;68.63;;;34.85;;
70414;SDS011;57837;52.064;113.478;2022-10-30T02:55:39;53.38;;;30.20;;
70414;SDS011;57837;52.064;113.478;2022-10-30T02:58:42;55.03;;;28.80;;
70414;SDS011;57837;52.064;113.478;2022-10-30T03:01:46;66.70;;;34.57;;
70414;SDS011;57837;52.064;113.478;2022-10-30T03:04:50;66.07;;;34.78;;
70414;SDS011;57837;52.064;113.478;2022-10-30T03:07:53;59.15;;;32.90;;
70414;SDS011;57837;52.064;113.478;2022-10-30T03:10:58;62.47;;;32.53;;
70414;SDS011;57837;52.064;113.478;2022-10-30T03:14:12;49.90;;;27.90;;
70414;SDS011;57837;52.064;113.478;2022-10-30T03:17:16;51.07;;;27.63;;
70414;SDS011;57837;52.064;113.478;2022-10-30T03:20:22;50.00;;;26.98;;
70414;SDS011;57837;52.064;113.478;2022-10-30T03:23:27;50.55;;;27.02;;
70414;SDS011;57837;52.064;113.478;2022-10-30T03:26:31;59.55;;;32.58;;
70414;SDS011;57837;52.064;113.478;2022-10-30T03:29:39;65.30;;;31.80;;
70414;SDS011;57837;52.064;113.478;2022-10-30T03:32:42;53.23;;;28.67;;
70414;SDS011;57837;52.064;113.478;2022-10-30T03:35:46;52.00;;;26.73;;
70414;SDS011;57837;52.064;113.478;2022-10-30T03:38:49;40.22;;;24.80;;
70414;SDS011;57837;52.064;113.478;2022-10-30T03:41:54;47.40;;;28.30;;
70414;SDS011;57837;52.064;113.478;2022-10-30T03:44:57;49.73;;;28.83;;
70414;SDS011;57837;52.064;113.478;2022-10-30T03:48:04;46.60;;;28.10;;
70414;SDS011;57837;52.064;113.478;2022-10-30T03:51:08;52.63;;;27.63;;
70414;SDS011;57837;52.064;113.478;2022-10-30T03:54:11;29.02;;;16.98;;
70414;SDS011;57837;52.064;113.478;2022-10-30T03:57:14;33.70;;;18.27;;
70414;SDS011;57837;52.064;113.478;2022-10-30T04:00:36;46.57;;;25.33;;
70414;SDS011;57837;52.064;113.478;2022-10-30T04:03:39;38.03;;;20.87;;
70414;SDS011;57837;52.064;113.478;2022-10-30T04:06:46;37.05;;;17.85;;
70414;SDS011;57837;52.064;113.478;2022-10-30T04:09:50;21.80;;;11.88;;
70414;SDS011;57837;52.064;113.478;2022-10-30T04:13:00;23.48;;;12.90;;
70414;SDS011;57837;52.064;113.478;2022-10-30T04:16:10;28.17;;;15.00;;
70414;SDS011;57837;52.064;113.478;2022-10-30T04:19:14;27.43;;;16.00;;
70414;SDS011;57837;52.064;113.478;2022-10-30T04:22:19;33.70;;;17.55;;
70414;SDS011;57837;52.064;113.478;2022-10-30T04:25:23;38.58;;;19.17;;
70414;SDS011;57837;52.064;113.478;2022-10-30T04:28:26;38.30;;;20.05;;
70414;SDS011;57837;52.064;113.478;2022-10-30T04:31:30;35.47;;;20.10;;
70414;SDS011;57837;52.064;113.478;2022-10-30T04:34:35;27.43;;;15.43;;
70414;SDS011;57837;52.064;113.478;2022-10-30T04:37:41;27.77;;;15.48;;
70414;SDS011;57837;52.064;113.478;2022-10-30T04:40:46;26.63;;;13.40;;
70414;SDS011;57837;52.064;113.478;2022-10-30T04:43:51;24.05;;;11.27;;
70414;SDS011;57837;52.064;113.478;2022-10-30T04:46:54;20.73;;;11.63;;
70414;SDS011;57837;52.064;113.478;2022-10-30T04:50:00;20.83;;;11.90;;
70414;SDS011;57837;52.064;113.478;2022-10-30T04:53:09;19.52;;;10.68;;
70414;SDS011;57837;52.064;113.478;2022-10-30T04:56:15;21.55;;;11.27;;
70414;SDS011;57837;52.064;113.478;2022-10-30T04:59:19;20.42;;;10.25;;
70414;SDS011;57837;52.064;113.478;2022-10-30T05:02:25;21.97;;;9.53;;
70414;SDS011;57837;52.064;113.478;2022-10-30T05:05:28;18.93;;;9.60;;
70414;SDS011;57837;52.064;113.478;2022-10-30T05:08:32;17.60;;;9.07;;
70414;SDS011;57837;52.064;113.478;2022-10-30T05:11:45;17.63;;;9.40;;
70414;SDS011;57837;52.064;113.478;2022-10-30T05:14:48;15.68;;;8.32;;
70414;SDS011;57837;52.064;113.478;2022-10-30T05:17:52;20.90;;;10.10;;
70414;SDS011;57837;52.064;113.478;2022-10-30T05:20:55;21.03;;;10.40;;
70414;SDS011;57837;52.064;113.478;2022-10-30T05:23:58;31.83;;;14.18;;
70414;SDS011;57837;52.064;113.478;2022-10-30T05:27:06;31.38;;;11.70;;
70414;SDS011;57837;52.064;113.478;2022-10-30T05:30:10;27.65;;;9.05;;
70414;SDS011;57837;52.064;113.478;2022-10-30T05:33:14;21.70;;;9.53;;
70414;SDS011;57837;52.064;113.478;2022-10-30T05:36:19;20.33;;;8.80;;
70414;SDS011;57837;52.064;113.478;2022-10-30T05:39:23;20.10;;;8.93;;
70414;SDS011;57837;52.064;113.478;2022-10-30T05:42:27;23.95;;;9.73;;
70414;SDS011;57837;52.064;113.478;2022-10-30T05:45:33;17.45;;;7.15;;
70414;SDS011;57837;52.064;113.478;2022-10-30T05:48:38;23.20;;;8.53;;
70414;SDS011;57837;52.064;113.478;2022-10-30T05:51:42;29.67;;;11.90;;
70414;SDS011;57837;52.064;113.478;2022-10-30T05:54:46;43.85;;;17.10;;
70414;SDS011;57837;52.064;113.478;2022-10-30T05:58:00;29.13;;;11.57;;
70414;SDS011;57837;52.064;113.478;2022-10-30T06:01:07;26.70;;;10.70;;
70414;SDS011;57837;52.064;113.478;2022-10-30T06:04:19;29.90;;;13.03;;
70414;SDS011;57837;52.064;113.478;2022-10-30T06:07:23;23.97;;;11.17;;
70414;SDS011;57837;52.064;113.478;2022-10-30T06:10:26;28.33;;;12.20;;
70414;SDS011;57837;52.064;113.478;2022-10-30T06:13:48;22.38;;;11.30;;
70414;SDS011;57837;52.064;113.478;2022-10-30T06:16:55;43.45;;;16.80;;
70414;SDS011;57837;52.064;113.478;2022-10-30T06:20:24;27.67;;;13.70;;
70414;SDS011;57837;52.064;113.478;2022-10-30T06:23:48;34.43;;;12.03;;
70414;SDS011;57837;52.064;113.478;2022-10-30T06:27:10;23.52;;;11.70;;
70414;SDS011;57837;52.064;113.478;2022-10-30T06:30:13;27.27;;;13.13;;
70414;SDS011;57837;52.064;113.478;2022-10-30T06:33:17;29.27;;;14.50;;
70414;SDS011;57837;52.064;113.478;2022-10-30T06:36:23;25.57;;;12.97;;
70414;SDS011;57837;52.064;113.478;2022-10-30T06:39:31;49.67;;;21.80;;
70414;SDS011;57837;52.064;113.478;2022-10-30T06:43:00;49.30;;;20.73;;
70414;SDS011;57837;52.064;113.478;2022-10-30T06:46:10;36.53;;;18.85;;
70414;SDS011;57837;52.064;113.478;2022-10-30T06:49:16;39.63;;;19.55;;
70414;SDS011;57837;52.064;113.478;2022-10-30T06:52:19;39.17;;;17.77;;
70414;SDS011;57837;52.064;113.478;2022-10-30T06:55:28;38.83;;;18.93;;
70414;SDS011;57837;52.064;113.478;2022-10-30T06:58:45;42.40;;;18.55;;
70414;SDS011;57837;52.064;113.478;2022-10-30T07:02:10;44.88;;;19.05;;
70414;SDS011;57837;52.064;113.478;2022-10-30T07:05:19;43.83;;;19.13;;
70414;SDS011;57837;52.064;113.478;2022-10-30T07:08:22;39.13;;;18.27;;
70414;SDS011;57837;52.064;113.478;2022-10-30T07:11:26;62.87;;;24.87;;
70414;SDS011;57837;52.064;113.478;2022-10-30T07:14:50;109.78;;;39.33;;
70414;SDS011;57837;52.064;113.478;2022-10-30T07:18:11;55.63;;;22.73;;
70414;SDS011;57837;52.064;113.478;2022-10-30T07:21:15;56.72;;;24.25;;
70414;SDS011;57837;52.064;113.478;2022-10-30T07:24:19;46.00;;;20.67;;
70414;SDS011;57837;52.064;113.478;2022-10-30T07:27:49;43.23;;;21.43;;
70414;SDS011;57837;52.064;113.478;2022-10-30T07:31:23;35.63;;;17.90;;
70414;SDS011;57837;52.064;113.478;2022-10-30T07:35:04;36.50;;;16.27;;
70414;SDS011;57837;52.064;113.478;2022-10-30T07:38:26;47.35;;;25.10;;
70414;SDS011;57837;52.064;113.478;2022-10-30T07:41:37;28.47;;;15.37;;
70414;SDS011;57837;52.064;113.478;2022-10-30T07:44:59;31.03;;;14.40;;
70414;SDS011;57837;52.064;113.478;2022-10-30T07:48:09;29.52;;;13.27;;
70414;SDS011;57837;52.064;113.478;2022-10-30T07:51:19;34.72;;;15.27;;
70414;SDS011;57837;52.064;113.478;2022-10-30T07:54:23;26.15;;;11.13;;
70414;SDS011;57837;52.064;113.478;2022-10-30T07:57:29;23.93;;;9.63;;
70414;SDS011;57837;52.064;113.478;2022-10-30T08:00:54;16.90;;;6.50;;
70414;SDS011;57837;52.064;113.478;2022-10-30T08:04:04;13.20;;;6.15;;
70414;SDS011;57837;52.064;113.478;2022-10-30T08:07:10;15.40;;;6.05;;
70414;SDS011;57837;52.064;113.478;2022-10-30T08:10:14;17.00;;;8.00;;
70414;SDS011;57837;52.064;113.478;2022-10-30T08:13:18;14.33;;;8.07;;
70414;SDS011;57837;52.064;113.478;2022-10-30T08:16:21;16.90;;;9.03;;
70414;SDS011;57837;52.064;113.478;2022-10-30T08:19:25;16.75;;;7.95;;
70414;SDS011;57837;52.064;113.478;2022-10-30T08:22:28;17.48;;;8.98;;
70414;SDS011;57837;52.064;113.478;2022-10-30T08:25:34;16.65;;;9.45;;
70414;SDS011;57837;52.064;113.478;2022-10-30T08:28:38;18.50;;;7.70;;
70414;SDS011;57837;52.064;113.478;2022-10-30T08:31:47;15.83;;;7.80;;
70414;SDS011;57837;52.064;113.478;2022-10-30T08:34:56;19.05;;;8.85;;
70414;SDS011;57837;52.064;113.478;2022-10-30T08:38:02;22.85;;;9.38;;
70414;SDS011;57837;52.064;113.478;2022-10-30T08:41:07;16.17;;;7.60;;
70414;SDS011;57837;52.064;113.478;2022-10-30T08:44:18;15.90;;;7.87;;
70414;SDS011;57837;52.064;113.478;2022-10-30T08:47:43;19.70;;;8.53;;
70414;SDS011;57837;52.064;113.478;2022-10-30T08:50:48;24.55;;;10.52;;
70414;SDS011;57837;52.064;113.478;2022-10-30T08:53:58;30.50;;;12.52;;
70414;SDS011;57837;52.064;113.478;2022-10-30T08:57:02;28.88;;;12.32;;
70414;SDS011;57837;52.064;113.478;2022-10-30T09:00:06;40.43;;;18.13;;
70414;SDS011;57837;52.064;113.478;2022-10-30T09:03:30;36.37;;;15.17;;
70414;SDS011;57837;52.064;113.478;2022-10-30T09:07:08;38.63;;;17.90;;
70414;SDS011;57837;52.064;113.478;2022-10-30T09:10:33;52.28;;;22.27;;
70414;SDS011;57837;52.064;113.478;2022-10-30T09:13:36;35.55;;;16.27;;
70414;SDS011;57837;52.064;113.478;2022-10-30T09:16:40;33.77;;;15.23;;
70414;SDS011;57837;52.064;113.478;2022-10-30T09:19:43;34.63;;;16.23;;
70414;SDS011;57837;52.064;113.478;2022-10-30T09:22:52;37.83;;;17.25;;
70414;SDS011;57837;52.064;113.478;2022-10-30T09:25:56;40.10;;;16.92;;
70414;SDS011;57837;52.064;113.478;2022-10-30T09:29:24;36.97;;;15.95;;
70414;SDS011;57837;52.064;113.478;2022-10-30T09:32:34;36.13;;;16.73;;
70414;SDS011;57837;52.064;113.478;2022-10-30T09:35:42;32.57;;;16.47;;
70414;SDS011;57837;52.064;113.478;2022-10-30T09:38:46;39.27;;;16.67;;
70414;SDS011;57837;52.064;113.478;2022-10-30T09:48:45;30.83;;;14.25;;
70414;SDS011;57837;52.064;113.478;2022-10-30T09:52:20;30.90;;;14.07;;
70414;SDS011;57837;52.064;113.478;2022-10-30T10:06:10;19.42;;;8.98;;
70414;SDS011;57837;52.064;113.478;2022-10-30T10:09:35;25.23;;;12.53;;
70414;SDS011;57837;52.064;113.478;2022-10-30T10:13:02;29.63;;;13.17;;
70414;SDS011;57837;52.064;113.478;2022-10-30T10:16:17;33.08;;;16.35;;
70414;SDS011;57837;52.064;113.478;2022-10-30T10:19:43;49.38;;;20.83;;
70414;SDS011;57837;52.064;113.478;2022-10-30T10:22:55;47.10;;;21.65;;
70414;SDS011;57837;52.064;113.478;2022-10-30T10:26:05;42.60;;;19.07;;
70414;SDS011;57837;52.064;113.478;2022-10-30T10:36:01;52.22;;;25.05;;
70414;SDS011;57837;52.064;113.478;2022-10-30T10:39:34;84.18;;;36.28;;
70414;SDS011;57837;52.064;113.478;2022-10-30T10:42:53;100.43;;;45.07;;
70414;SDS011;57837;52.064;113.478;2022-10-30T10:46:14;102.13;;;43.55;;
70414;SDS011;57837;52.064;113.478;2022-10-30T10:52:36;114.88;;;44.55;;
70414;SDS011;57837;52.064;113.478;2022-10-30T10:55:43;84.40;;;35.33;;
70414;SDS011;57837;52.064;113.478;2022-10-30T10:58:55;111.13;;;45.63;;
70414;SDS011;57837;52.064;113.478;2022-10-30T11:08:32;60.55;;;25.10;;
70414;SDS011;57837;52.064;113.478;2022-10-30T11:11:39;68.47;;;28.15;;
70414;SDS011;57837;52.064;113.478;2022-10-30T11:14:43;69.20;;;31.43;;
70414;SDS011;57837;52.064;113.478;2022-10-30T11:18:03;53.40;;;24.52;;
70414;SDS011;57837;52.064;113.478;2022-10-30T11:21:09;53.20;;;24.20;;
70414;SDS011;57837;52.064;113.478;2022-10-30T11:27:31;50.80;;;23.48;;
70414;SDS011;57837;52.064;113.478;2022-10-30T11:30:35;43.53;;;21.03;;
70414;SDS011;57837;52.064;113.478;2022-10-30T11:33:39;68.47;;;27.70;;
70414;SDS011;57837;52.064;113.478;2022-10-30T11:43:10;60.72;;;25.73;;
70414;SDS011;57837;52.064;113.478;2022-10-30T11:46:21;67.90;;;28.03;;
70414;SDS011;57837;52.064;113.478;2022-10-30T11:50:00;74.60;;;30.05;;
70414;SDS011;57837;52.064;113.478;2022-10-30T11:53:10;99.45;;;39.05;;
70414;SDS011;57837;52.064;113.478;2022-10-30T11:56:33;80.43;;;30.67;;
70414;SDS011;57837;52.064;113.478;2022-10-30T11:59:37;81.45;;;32.40;;
70414;SDS011;57837;52.064;113.478;2022-10-30T12:02:42;88.20;;;33.00;;
70414;SDS011;57837;52.064;113.478;2022-10-30T12:05:47;82.80;;;33.77;;
70414;SDS011;57837;52.064;113.478;2022-10-30T12:09:11;84.57;;;36.42;;
70414;SDS011;57837;52.064;113.478;2022-10-30T12:12:40;94.75;;;39.17;;
70414;SDS011;57837;52.064;113.478;2022-10-30T12:15:46;89.35;;;38.25;;
70414;SDS011;57837;52.064;113.478;2022-10-30T12:22:00;92.40;;;38.00;;
70414;SDS011;57837;52.064;113.478;2022-10-30T12:25:29;84.88;;;40.28;;
70414;SDS011;57837;52.064;113.478;2022-10-30T12:28:33;67.55;;;32.28;;
70414;SDS011;57837;52.064;113.478;2022-10-30T12:31:38;57.15;;;26.95;;
70414;SDS011;57837;52.064;113.478;2022-10-30T12:34:49;53.40;;;26.33;;
70414;SDS011;57837;52.064;113.478;2022-10-30T12:48:11;69.03;;;32.88;;
70414;SDS011;57837;52.064;113.478;2022-10-30T12:51:31;61.73;;;29.73;;
70414;SDS011;57837;52.064;113.478;2022-10-30T13:01:34;54.65;;;27.88;;
70414;SDS011;57837;52.064;113.478;2022-10-30T13:04:46;54.90;;;26.45;;
70414;SDS011;57837;52.064;113.478;2022-10-30T13:11:31;71.60;;;36.67;;
70414;SDS011;57837;52.064;113.478;2022-10-30T13:17:40;63.95;;;33.05;;
70414;SDS011;57837;52.064;113.478;2022-10-30T13:27:50;56.57;;;27.60;;
70414;SDS011;57837;52.064;113.478;2022-10-30T13:31:37;61.13;;;27.63;;
70414;SDS011;57837;52.064;113.478;2022-10-30T13:34:40;51.42;;;26.25;;
70414;SDS011;57837;52.064;113.478;2022-10-30T13:48:07;40.47;;;21.83;;
70414;SDS011;57837;52.064;113.478;2022-10-30T13:54:39;42.92;;;19.73;;
70414;SDS011;57837;52.064;113.478;2022-10-30T13:57:52;42.13;;;20.85;;
70414;SDS011;57837;52.064;113.478;2022-10-30T14:04:51;45.93;;;19.87;;
70414;SDS011;57837;52.064;113.478;2022-10-30T14:11:09;32.67;;;15.18;;
70414;SDS011;57837;52.064;113.478;2022-10-30T14:17:31;28.13;;;11.70;;
70414;SDS011;57837;52.064;113.478;2022-10-30T14:20:35;25.77;;;12.00;;
70414;SDS011;57837;52.064;113.478;2022-10-30T14:23:42;30.48;;;13.15;;
70414;SDS011;57837;52.064;113.478;2022-10-30T14:27:19;27.00;;;11.82;;
70414;SDS011;57837;52.064;113.478;2022-10-30T14:30:20;23.35;;;10.18;;
70414;SDS011;57837;52.064;113.478;2022-10-30T14:36:48;16.10;;;8.23;;
70414;SDS011;57837;52.064;113.478;2022-10-30T14:39:52;15.30;;;6.60;;
70414;SDS011;57837;52.064;113.478;2022-10-30T14:42:57;8.68;;;4.07;;
70414;SDS011;57837;52.064;113.478;2022-10-30T14:46:18;10.27;;;4.95;;
70414;SDS011;57837;52.064;113.478;2022-10-30T14:52:51;5.63;;;3.20;;
70414;SDS011;57837;52.064;113.478;2022-10-30T14:59:22;5.78;;;3.15;;
70414;SDS011;57837;52.064;113.478;2022-10-30T15:02:36;7.03;;;3.30;;
70414;SDS011;57837;52.064;113.478;2022-10-30T15:13:19;6.10;;;3.25;;
70414;SDS011;57837;52.064;113.478;2022-10-30T15:16:20;7.50;;;3.83;;
70414;SDS011;57837;52.064;113.478;2022-10-30T15:19:25;8.70;;;3.90;;
70414;SDS011;57837;52.064;113.478;2022-10-30T15:22:31;10.17;;;3.90;;
70414;SDS011;57837;52.064;113.478;2022-10-30T15:25:45;13.57;;;4.47;;
70414;SDS011;57837;52.064;113.478;2022-10-30T15:28:51;7.63;;;3.80;;
70414;SDS011;57837;52.064;113.478;2022-10-30T15:32:02;7.53;;;3.60;;
70414;SDS011;57837;52.064;113.478;2022-10-30T15:35:15;6.68;;;3.53;;
70414;SDS011;57837;52.064;113.478;2022-10-30T15:38:21;8.37;;;4.53;;
70414;SDS011;57837;52.064;113.478;2022-10-30T15:41:24;8.55;;;3.97;;
70414;SDS011;57837;52.064;113.478;2022-10-30T15:44:29;10.43;;;4.13;;
70414;SDS011;57837;52.064;113.478;2022-10-30T15:47:34;8.98;;;4.45;;
70414;SDS011;57837;52.064;113.478;2022-10-30T15:50:43;8.85;;;3.97;;
70414;SDS011;57837;52.064;113.478;2022-10-30T15:53:55;7.77;;;4.60;;
70414;SDS011;57837;52.064;113.478;2022-10-30T15:57:04;10.07;;;4.32;;
70414;SDS011;57837;52.064;113.478;2022-10-30T16:00:32;8.95;;;5.13;;
70414;SDS011;57837;52.064;113.478;2022-10-30T16:03:38;15.43;;;6.80;;
70414;SDS011;57837;52.064;113.478;2022-10-30T16:07:01;8.48;;;4.85;;
70414;SDS011;57837;52.064;113.478;2022-10-30T16:10:18;8.87;;;4.17;;
70414;SDS011;57837;52.064;113.478;2022-10-30T16:13:27;8.23;;;4.47;;
70414;SDS011;57837;52.064;113.478;2022-10-30T16:16:32;9.23;;;4.00;;
70414;SDS011;57837;52.064;113.478;2022-10-30T16:19:42;10.27;;;4.72;;
70414;SDS011;57837;52.064;113.478;2022-10-30T16:22:51;8.68;;;4.22;;
70414;SDS011;57837;52.064;113.478;2022-10-30T16:25:56;7.87;;;3.80;;
70414;SDS011;57837;52.064;113.478;2022-10-30T16:32:16;4.55;;;2.72;;
70414;SDS011;57837;52.064;113.478;2022-10-30T16:35:23;7.90;;;3.58;;
70414;SDS011;57837;52.064;113.478;2022-10-30T16:38:28;10.35;;;4.10;;
70414;SDS011;57837;52.064;113.478;2022-10-30T16:41:36;6.83;;;2.67;;
70414;SDS011;57837;52.064;113.478;2022-10-30T16:44:41;9.73;;;4.25;;
70414;SDS011;57837;52.064;113.478;2022-10-30T16:47:45;8.65;;;4.47;;
70414;SDS011;57837;52.064;113.478;2022-10-30T16:51:00;8.50;;;4.15;;
70414;SDS011;57837;52.064;113.478;2022-10-30T16:54:11;10.80;;;5.10;;
70414;SDS011;57837;52.064;113.478;2022-10-30T16:57:25;6.67;;;3.40;;
70414;SDS011;57837;52.064;113.478;2022-10-30T17:00:31;6.85;;;2.78;;
70414;SDS011;57837;52.064;113.478;2022-10-30T17:03:38;5.28;;;2.03;;
70414;SDS011;57837;52.064;113.478;2022-10-30T17:06:43;4.53;;;2.00;;
70414;SDS011;57837;52.064;113.478;2022-10-30T17:09:48;3.53;;;1.90;;
70414;SDS011;57837;52.064;113.478;2022-10-30T17:13:25;5.13;;;1.50;;
70414;SDS011;57837;52.064;113.478;2022-10-30T17:16:36;3.33;;;1.38;;
70414;SDS011;57837;52.064;113.478;2022-10-30T17:19:44;2.67;;;1.25;;
70414;SDS011;57837;52.064;113.478;2022-10-30T17:22:50;3.40;;;1.95;;
70414;SDS011;57837;52.064;113.478;2022-10-30T17:26:07;4.30;;;2.00;;
70414;SDS011;57837;52.064;113.478;2022-10-30T17:32:43;3.58;;;1.77;;
70414;SDS011;57837;52.064;113.478;2022-10-30T17:35:47;3.20;;;2.00;;
70414;SDS011;57837;52.064;113.478;2022-10-30T17:38:51;3.80;;;1.75;;
70414;SDS011;57837;52.064;113.478;2022-10-30T17:41:55;4.63;;;2.25;;
70414;SDS011;57837;52.064;113.478;2022-10-30T17:44:59;4.33;;;1.43;;
70414;SDS011;57837;52.064;113.478;2022-10-30T17:48:06;7.43;;;2.40;;
70414;SDS011;57837;52.064;113.478;2022-10-30T17:51:18;9.45;;;3.67;;
70414;SDS011;57837;52.064;113.478;2022-10-30T17:54:22;5.45;;;2.47;;
70414;SDS011;57837;52.064;113.478;2022-10-30T17:57:26;2.05;;;1.30;;
70414;SDS011;57837;52.064;113.478;2022-10-30T18:00:31;2.87;;;1.90;;
70414;SDS011;57837;52.064;113.478;2022-10-30T18:03:35;3.53;;;1.80;;
70414;SDS011;57837;52.064;113.478;2022-10-30T18:06:39;3.25;;;1.73;;
70414;SDS011;57837;52.064;113.478;2022-10-30T18:09:43;5.88;;;1.75;;
70414;SDS011;57837;52.064;113.478;2022-10-30T18:12:47;4.70;;;2.60;;
70414;SDS011;57837;52.064;113.478;2022-10-30T18:15:55;8.37;;;2.83;;
70414;SDS011;57837;52.064;113.478;2022-10-30T18:19:00;8.25;;;2.30;;
70414;SDS011;57837;52.064;113.478;2022-10-30T18:22:04;5.80;;;2.38;;
70414;SDS011;57837;52.064;113.478;2022-10-30T18:28:18;7.03;;;2.55;;
70414;SDS011;57837;52.064;113.478;2022-10-30T18:31:22;5.43;;;2.20;;
70414;SDS011;57837;52.064;113.478;2022-10-30T18:34:27;5.22;;;2.20;;
70414;SDS011;57837;52.064;113.478;2022-10-30T18:37:30;4.53;;;2.10;;
70414;SDS011;57837;52.064;113.478;2022-10-30T18:40:34;4.75;;;2.13;;
70414;SDS011;57837;52.064;113.478;2022-10-30T18:43:38;5.60;;;2.45;;
70414;SDS011;57837;52.064;113.478;2022-10-30T18:46:48;5.63;;;2.43;;
70414;SDS011;57837;52.064;113.478;2022-10-30T18:49:54;9.70;;;3.15;;
70414;SDS011;57837;52.064;113.478;2022-10-30T18:52:58;4.03;;;2.50;;
70414;SDS011;57837;52.064;113.478;2022-10-30T18:56:03;7.70;;;2.67;;
70414;SDS011;57837;52.064;113.478;2022-10-30T18:59:07;4.10;;;2.30;;
70414;SDS011;57837;52.064;113.478;2022-10-30T19:02:21;6.60;;;3.00;;
70414;SDS011;57837;52.064;113.478;2022-10-30T19:08:29;5.72;;;2.53;;
70414;SDS011;57837;52.064;113.478;2022-10-30T19:11:33;8.52;;;2.70;;
70414;SDS011;57837;52.064;113.478;2022-10-30T19:14:40;8.35;;;2.90;;
70414;SDS011;57837;52.064;113.478;2022-10-30T19:17:44;14.40;;;3.23;;
70414;SDS011;57837;52.064;113.478;2022-10-30T19:20:47;7.55;;;2.97;;
70414;SDS011;57837;52.064;113.478;2022-10-30T19:24:08;6.70;;;2.72;;
70414;SDS011;57837;52.064;113.478;2022-10-30T19:27:15;8.93;;;2.42;;
70414;SDS011;57837;52.064;113.478;2022-10-30T19:30:19;7.22;;;2.80;;
70414;SDS011;57837;52.064;113.478;2022-10-30T19:33:24;8.77;;;2.97;;
70414;SDS011;57837;52.064;113.478;2022-10-30T19:39:31;7.15;;;3.00;;
70414;SDS011;57837;52.064;113.478;2022-10-30T19:42:35;8.70;;;2.83;;
70414;SDS011;57837;52.064;113.478;2022-10-30T19:45:39;8.40;;;2.60;;
70414;SDS011;57837;52.064;113.478;2022-10-30T19:48:43;11.10;;;2.80;;
70414;SDS011;57837;52.064;113.478;2022-10-30T19:52:02;16.52;;;2.80;;
70414;SDS011;57837;52.064;113.478;2022-10-30T19:55:07;10.77;;;3.50;;
70414;SDS011;57837;52.064;113.478;2022-10-30T19:58:12;10.25;;;3.13;;
70414;SDS011;57837;52.064;113.478;2022-10-30T20:01:17;7.97;;;1.98;;
70414;SDS011;57837;52.064;113.478;2022-10-30T20:04:20;11.63;;;2.63;;
70414;SDS011;57837;52.064;113.478;2022-10-30T20:07:24;5.13;;;2.30;;
70414;SDS011;57837;52.064;113.478;2022-10-30T20:10:29;8.30;;;2.30;;
70414;SDS011;57837;52.064;113.478;2022-10-30T20:13:35;4.93;;;2.45;;
70414;SDS011;57837;52.064;113.478;2022-10-30T20:16:38;7.90;;;2.33;;
70414;SDS011;57837;52.064;113.478;2022-10-30T20:19:42;5.03;;;2.10;;
70414;SDS011;57837;52.064;113.478;2022-10-30T20:22:47;6.28;;;2.22;;
70414;SDS011;57837;52.064;113.478;2022-10-30T20:25:52;3.80;;;2.17;;
70414;SDS011;57837;52.064;113.478;2022-10-30T20:29:06;8.48;;;2.33;;
70414;SDS011;57837;52.064;113.478;2022-10-30T20:32:10;6.45;;;2.42;;
70414;SDS011;57837;52.064;113.478;2022-10-30T20:35:13;4.60;;;2.57;;
70414;SDS011;57837;52.064;113.478;2022-10-30T20:38:18;4.22;;;2.22;;
70414;SDS011;57837;52.064;113.478;2022-10-30T20:41:37;4.70;;;2.50;;